CheckWX is a tool to help pilots better visualize weather data.  It is not intended as a substitute for an official pre-flight weather briefing.

12:58:38 UTC

LKPD TAF
Pardubice Airport
Pardubice, Czech Republic
TAF LKPD 131100Z 1312/1412 15010KT 9999 BKN020 PROB30 TEMPO 1316/1319 RA BECMG 1317/1319 23012KT BKN030 TEMPO 1322/1412 24014G24KT

Dec-13@
12:00 UTC

Dec-13 @ 12:00 UTC

Dec-13@
17:00 UTC

Dec-13 @ 17:00 UTC

TAF LKPD 131100Z 1312/1412 15010KT 9999 BKN020
Wind
  • 150° at 10 KTS
Cloud Levels
  • Broken at 2,000' AGL

Dec-13@
16:00 UTC

Dec-13 @ 16:00 UTC

Dec-13@
19:00 UTC

Dec-13 @ 19:00 UTC

PROB30 TEMPO 1316/1319 RA

Temporary - 30% Likelihood

Temporary - 30% Likelihood during this time.

Conditions
Rain

Dec-13@
17:00 UTC

Dec-13 @ 17:00 UTC

Dec-14@
12:00 UTC

Dec-14 @ 12:00 UTC

BECMG 1317/1319 23012KT BKN030

Becoming

Becoming Conditions expected by Fri, Dec 13, 2019 @ 19:00 UTC

Wind
  • 230° at 12 KTS
Cloud Levels
  • Broken at 3,000' AGL

Dec-13@
22:00 UTC

Dec-13 @ 22:00 UTC

Dec-14@
12:00 UTC

Dec-14 @ 12:00 UTC

TEMPO 1322/1412 24014G24KT

Temporary

Temporary Changes expected for less than half the time period

Wind
  • 240° at 14 KTS
  • {Gusting to 24 KTS